ENVAENBR

Guest
Details From ENVA - Vaernes
To ENBR - Bergen Lufthavn Flesland
Flight Number -
Tags decoded
Created
Modified
Stats Distance 249 nm / 461 km
Max Altitude 0 ft / 0 m
Waypoints 2
Social Downloads 11
Likes 0
Share VATSIM

Download

Looking for another format? Having issues loading an existing format? Contact us
Advertisement - Login to hide

Notes

Requested: ENVA NELSU EVNAN INTUM ENBR Unmatched points: NELSU EVNAN INTUM

Route

ENVA ENBR

ID Type Via Altitude Latitude Longitude Leg Dist Tot Dist Heading (true) Name
O ENVA APT - 0 ft / 0 m 63.45760˚ 10.91798˚ - 0 nm - Vaernes
O ENBR APT - 0 ft / 0 m 60.29339˚ 5.21814˚ 249 nm 249 nm 223° / 218° Bergen Lufthavn Flesland

Altitude Profile

Advertisement - Login to hide

Weather


0- 5 10 15 20 25 30 35+ Temperature / ° C

Clouds and Precipitation
Forecast for 2017-12-17 18:00 UTC. Updated 21 minutes ago

Ground ~20,000 ft ~40,000 ft Winds

ENVA

Details ICAO ENVA (TRD)
Name Vaernes
Region Norway
Timezone Europe/Oslo (UTC+1.0)
Stats Elevation 56 ft / 17 m (AMSL)
Location 63.457605° 10.917980°
Runways 1
Magnetic Variation 3.496° E

METAR

ENVA 171720Z 12004KT 080V150 CAVOK M01/M08 Q1006 RMK WIND 670FT 16016KT

Decode

TAF

TAF AMD ENVA 171451Z 1714/1812 12008KT 9999 FEW010 SCT040 BECMG 1804/1806 25020G30KT TEMPO 1803/1809 2000 SN VV008

Decode

Departure Runways

ID Width Length Bearing (true) Bearing (mag) Surface Threshold Offset Overrun Length
09 148 ft / 45 m 9,356 ft / 2,852 m 90.21° 86.71° Asphalt 984 ft / 300 m 0 ft / 0 m
27 148 ft / 45 m 9,356 ft / 2,852 m 270.26° 266.76° Asphalt 689 ft / 210 m 0 ft / 0 m

ENBR

Details ICAO ENBR (BGO)
Name Bergen Lufthavn Flesland
Region Norway
Timezone Europe/Oslo (UTC+1.0)
Stats Elevation 165 ft / 50 m (AMSL)
Location 60.293388° 5.218140°
Runways 1
Magnetic Variation 0.842° E

METAR

ENBR 171720Z 15018KT 9999 -RA FEW007 SCT015 BKN020 02/01 Q1005 TEMPO 3000 RA BKN008 RMK WIND 1200FT 14032G42KT

Decode

TAF

TAF AMD ENBR 171451Z 1715/1812 15018KT 9999 -RA FEW012 BKN020 PROB40 TEMPO 1715/1719 3000 RASN BR BKN008 BECMG 1717/1719 BKN012 TEMPO 1719/1724 4000 RADZ BR BKN007 BECMG 1721/1723 VRB05KT BECMG 1800/1802 BKN025

Decode

Destination Runways

ID Width Length Bearing (true) Bearing (mag) Surface Threshold Offset Overrun Length
17 148 ft / 45 m 9,793 ft / 2,985 m 170.56° 169.72° Asphalt 886 ft / 270 m 0 ft / 0 m
35 148 ft / 45 m 9,793 ft / 2,985 m 350.57° 349.73° Asphalt 886 ft / 270 m 0 ft / 0 m

Approach Navaids

Runway Type Ident Frequency Range Bearing (true) Bearing (mag) Slope Elevation
17 Localiser BR 109.90 MHz 18 nm / 33 km 170.56° 169.72° - 165 ft / 50 m (AMSL)
17 Glidescope BR 109.90 MHz 10 nm / 19 km 170.56° 169.72° 3.10° 165 ft / 50 m (AMSL)
35 Localiser BG 110.50 MHz 18 nm / 33 km 350.55° 349.70° - 165 ft / 50 m (AMSL)
35 Glidescope BG 110.50 MHz 10 nm / 19 km 350.56° 349.72° 3.00° 165 ft / 50 m (AMSL)

Popular Alternatives